Time;durP1;ratioP1;P1;durP2;ratioP2;P2;SDS_P1;SDS_P2;PMS_P1;PMS_P2;Temp;Humidity;BMP_temperature;BMP_pressure;BME280_temperature;BME280_humidity;BME280_pressure;Samples;Min_cycle;Max_cycle;Signal;HPM_P1;HPM_P2
2022/03/04 00:00:27;;;;;;;49.08;25.70;;;0.70;99.90;;;;;;5035663;28;20045;-63
2022/03/04 00:02:55;;;;;;;52.63;28.05;;;0.70;99.90;;;;;;5024124;28;20582;-64
2022/03/04 00:05:22;;;;;;;51.83;27.77;;;0.60;99.90;;;;;;5021164;28;20040;-64
2022/03/04 00:07:49;;;;;;;56.25;29.35;;;0.60;99.90;;;;;;5023905;28;20041;-63
2022/03/04 00:10:15;;;;;;;;;;;0.60;99.90;;;;;;5024747;28;20032;-62
2022/03/04 00:12:42;;;;;;;48.20;26.40;;;0.50;99.90;;;;;;5020799;28;19981;-63
2022/03/04 00:15:10;;;;;;;53.15;27.40;;;0.50;99.90;;;;;;5023626;28;20186;-63
2022/03/04 00:17:37;;;;;;;54.35;29.27;;;0.50;99.90;;;;;;5022952;28;20041;-63
2022/03/04 00:20:04;;;;;;;56.00;30.25;;;0.40;99.90;;;;;;5023209;28;20549;-63
2022/03/04 00:22:32;;;;;;;57.45;29.98;;;0.40;99.90;;;;;;5020884;28;20545;-64
2022/03/04 00:24:59;;;;;;;55.45;28.63;;;0.40;99.90;;;;;;5023154;28;20044;-64
2022/03/04 00:27:26;;;;;;;;;;;0.30;99.90;;;;;;5023703;28;20037;-63
2022/03/04 00:29:53;;;;;;;52.13;28.20;;;0.30;99.90;;;;;;5024355;28;20041;-64
2022/03/04 00:32:20;;;;;;;47.85;26.13;;;0.30;99.90;;;;;;5022814;28;20363;-63
2022/03/04 00:34:47;;;;;;;53.20;28.98;;;0.30;99.90;;;;;;5042711;28;20185;-63
2022/03/04 00:37:14;;;;;;;53.28;27.52;;;0.30;99.90;;;;;;5025313;28;20557;-63
2022/03/04 00:39:41;;;;;;;57.05;30.73;;;0.30;99.90;;;;;;5042358;28;20051;-63
2022/03/04 00:42:08;;;;;;;50.10;27.92;;;0.20;99.90;;;;;;5043750;28;20047;-64
2022/03/04 00:44:35;;;;;;;45.65;25.48;;;0.20;99.90;;;;;;5023398;28;20128;-64
2022/03/04 00:47:05;;;;;;;60.33;32.60;;;0.20;99.90;;;;;;5020891;28;20490;-63
2022/03/04 00:49:32;;;;;;;60.15;31.60;;;0.20;99.90;;;;;;5021467;28;20052;-63
2022/03/04 00:51:59;;;;;;;62.67;32.53;;;0.10;99.90;;;;;;5030984;28;20509;-63
2022/03/04 00:54:25;;;;;;;;;;;0.10;99.90;;;;;;5022838;28;20125;-64
2022/03/04 00:56:52;;;;;;;59.97;31.33;;;0.10;99.90;;;;;;5023630;28;19921;-63
2022/03/04 00:59:19;;;;;;;62.10;30.17;;;0.10;99.90;;;;;;5023130;28;20425;-63
2022/03/04 01:01:46;;;;;;;94.35;39.92;;;0.00;99.90;;;;;;5035718;28;20043;-62
2022/03/04 01:04:14;;;;;;;60.00;31.83;;;0.00;99.90;;;;;;5041097;28;20540;-63
2022/03/04 01:06:41;;;;;;;60.35;31.00;;;-0.10;99.90;;;;;;5041254;28;20040;-63
2022/03/04 01:09:08;;;;;;;52.70;28.52;;;-0.10;99.90;;;;;;5042783;28;20355;-64
2022/03/04 01:11:37;;;;;;;60.85;30.67;;;-0.10;99.90;;;;;;5040705;28;20043;-64
2022/03/04 01:14:05;;;;;;;59.67;33.17;;;-0.10;99.90;;;;;;5041331;28;20044;-64
2022/03/04 01:16:32;;;;;;;57.55;30.15;;;-0.10;99.90;;;;;;5041226;28;20405;-66
2022/03/04 01:18:59;;;;;;;61.25;28.85;;;-0.20;99.90;;;;;;5052516;28;20044;-64
2022/03/04 01:21:27;;;;;;;56.45;30.52;;;-0.20;99.90;;;;;;5019698;28;20819;-64
2022/03/04 01:23:54;;;;;;;61.60;31.30;;;-0.20;99.90;;;;;;5011491;28;20083;-64
2022/03/04 01:26:22;;;;;;;56.05;29.30;;;-0.20;99.90;;;;;;5023314;28;20576;-64
2022/03/04 01:28:49;;;;;;;61.28;31.35;;;-0.20;99.90;;;;;;5032536;28;20067;-64
2022/03/04 01:31:15;;;;;;;62.03;31.83;;;-0.20;99.90;;;;;;5044170;28;20052;-64
2022/03/04 01:33:42;;;;;;;61.20;30.95;;;-0.30;99.90;;;;;;5051465;28;20043;-65
2022/03/04 01:36:09;;;;;;;62.88;30.98;;;-0.30;99.90;;;;;;5064307;28;20572;-64
2022/03/04 01:38:36;;;;;;;;;;;-0.30;99.90;;;;;;5065764;28;20055;-66
2022/03/04 01:41:04;;;;;;;60.92;28.75;;;-0.30;99.90;;;;;;5065076;28;19924;-66
2022/03/04 01:43:31;;;;;;;58.15;30.08;;;-0.30;99.90;;;;;;5055700;28;20041;-64
2022/03/04 01:46:13;;;;;;;54.03;30.92;;;-0.30;99.90;;;;;;5044785;28;20961;-65
2022/03/04 01:48:44;;;;;;;53.75;29.20;;;-0.30;99.90;;;;;;5039442;28;20587;-65
2022/03/04 01:51:15;;;;;;;52.42;29.13;;;-0.30;99.90;;;;;;5027909;28;20036;-64
2022/03/04 01:53:42;;;;;;;48.72;27.13;;;-0.30;99.90;;;;;;5023796;28;20512;-66
2022/03/04 01:56:10;;;;;;;51.50;28.92;;;-0.30;99.90;;;;;;5004343;28;20498;-65
2022/03/04 01:58:37;;;;;;;59.75;29.98;;;-0.40;99.90;;;;;;5003479;28;20573;-65
2022/03/04 02:01:05;;;;;;;52.30;28.70;;;-0.40;99.90;;;;;;5023473;28;20044;-65
2022/03/04 02:03:34;;;;;;;56.30;30.80;;;-0.40;99.90;;;;;;5045223;28;20091;-65
2022/03/04 02:06:01;;;;;;;69.75;31.95;;;-0.50;99.90;;;;;;5044496;28;20043;-64
2022/03/04 02:08:29;;;;;;;57.95;30.70;;;-0.50;99.90;;;;;;5044661;28;20113;-65
2022/03/04 02:10:57;;;;;;;60.55;30.98;;;-0.50;99.90;;;;;;5044633;28;20585;-63
2022/03/04 02:13:28;;;;;;;52.85;29.63;;;-0.50;99.90;;;;;;5025767;28;20206;-63
2022/03/04 02:15:55;;;;;;;60.97;31.23;;;-0.60;99.90;;;;;;5043313;28;20174;-64
2022/03/04 02:18:22;;;;;;;62.65;31.48;;;-0.60;99.90;;;;;;5044706;28;20374;-63
2022/03/04 02:20:52;;;;;;;60.72;31.20;;;-0.60;99.90;;;;;;5044796;28;20052;-64
2022/03/04 02:23:20;;;;;;;54.67;28.95;;;-0.60;99.90;;;;;;5044065;28;20680;-63
2022/03/04 02:25:51;;;;;;;64.97;30.55;;;-0.60;99.90;;;;;;5046317;28;20047;-63
2022/03/04 02:28:21;;;;;;;50.65;27.88;;;-0.60;99.90;;;;;;5046414;28;20517;-63
2022/03/04 02:30:48;;;;;;;53.42;27.88;;;-0.60;99.90;;;;;;5043419;28;20106;-63
2022/03/04 02:33:15;;;;;;;56.75;30.02;;;-0.70;99.90;;;;;;5041486;28;20044;-64
2022/03/04 02:35:42;;;;;;;57.72;30.13;;;-0.70;99.90;;;;;;5026036;28;20047;-64
2022/03/04 02:38:13;;;;;;;58.65;31.58;;;-0.70;99.90;;;;;;5028987;28;20670;-65
2022/03/04 02:40:40;;;;;;;61.95;30.17;;;-0.70;99.90;;;;;;5028977;28;20044;-64
2022/03/04 02:43:07;;;;;;;56.45;30.45;;;-0.70;99.90;;;;;;5031945;28;20220;-64
2022/03/04 02:45:35;;;;;;;56.35;29.92;;;-0.70;99.90;;;;;;5048023;28;20128;-63
2022/03/04 02:48:02;;;;;;;51.97;29.60;;;-0.80;99.90;;;;;;5047203;28;20147;-64
2022/03/04 02:50:30;;;;;;;54.50;27.63;;;-0.80;99.90;;;;;;5047615;28;20052;-65
2022/03/04 02:52:57;;;;;;;64.72;31.52;;;-0.80;99.90;;;;;;5028583;28;20174;-65
2022/03/04 02:55:24;;;;;;;56.25;30.95;;;-0.80;99.90;;;;;;5026656;28;20044;-64
2022/03/04 02:57:54;;;;;;;57.83;30.60;;;-0.90;99.90;;;;;;5027526;28;20044;-65
2022/03/04 03:00:22;;;;;;;59.10;28.35;;;-0.90;99.90;;;;;;5030390;28;20040;-64
2022/03/04 03:02:49;;;;;;;65.50;30.50;;;-0.90;99.90;;;;;;5045636;28;20517;-65
2022/03/04 03:05:16;;;;;;;55.30;30.33;;;-0.90;99.90;;;;;;5044945;28;20176;-65
2022/03/04 03:07:43;;;;;;;51.72;28.67;;;-1.00;99.90;;;;;;5043791;28;20040;-61
2022/03/04 03:10:10;;;;;;;53.72;28.00;;;-1.00;99.90;;;;;;5044324;28;20238;-62
2022/03/04 03:12:39;;;;;;;49.85;28.13;;;-1.00;99.90;;;;;;5046955;28;20048;-62
2022/03/04 03:15:07;;;;;;;51.42;27.58;;;-1.00;99.90;;;;;;5043204;28;20096;-62
2022/03/04 03:17:36;;;;;;;53.80;29.15;;;-1.10;99.90;;;;;;5043543;28;21033;-62
2022/03/04 03:20:05;;;;;;;56.67;30.00;;;-1.10;99.90;;;;;;5044742;28;20062;-62
2022/03/04 03:22:31;;;;;;;59.80;29.77;;;-1.20;99.90;;;;;;5044874;28;20054;-62
2022/03/04 03:24:59;;;;;;;58.78;29.85;;;-1.20;99.90;;;;;;5053586;28;20389;-62
2022/03/04 03:27:27;;;;;;;56.03;29.75;;;-1.20;99.90;;;;;;5044836;28;20565;-62
2022/03/04 03:29:55;;;;;;;69.22;32.90;;;-1.30;99.90;;;;;;5045386;28;20519;-62
2022/03/04 03:32:22;;;;;;;59.63;30.30;;;-1.30;99.90;;;;;;5045919;28;20208;-63
2022/03/04 03:34:50;;;;;;;57.58;30.15;;;-1.30;99.90;;;;;;5006561;28;20156;-62
2022/03/04 03:37:29;;;;;;;56.33;29.55;;;-1.40;99.90;;;;;;5005127;28;20049;-62
2022/03/04 03:39:56;;;;;;;54.33;29.38;;;-1.40;99.90;;;;;;5005912;28;20128;-63
2022/03/04 03:42:23;;;;;;;56.80;28.77;;;-1.40;99.90;;;;;;5008211;28;20048;-63
2022/03/04 03:44:51;;;;;;;60.80;31.65;;;-1.40;99.90;;;;;;5042947;28;20036;-62
2022/03/04 03:47:21;;;;;;;64.07;32.03;;;-1.40;99.90;;;;;;5045851;28;20247;-62
2022/03/04 03:49:48;;;;;;;62.00;32.80;;;-1.40;99.90;;;;;;5044641;28;20114;-62
2022/03/04 03:52:16;;;;;;;59.75;30.77;;;-1.40;99.90;;;;;;5028304;28;20044;-62
2022/03/04 03:54:43;;;;;;;62.65;30.17;;;-1.40;99.90;;;;;;5004853;28;20041;-62
2022/03/04 03:57:10;;;;;;;53.28;29.33;;;-1.50;99.90;;;;;;5005271;28;20523;-62
2022/03/04 03:59:38;;;;;;;51.30;29.05;;;-1.50;99.90;;;;;;5003748;28;20525;-62
2022/03/04 04:02:05;;;;;;;47.83;25.52;;;-1.50;99.90;;;;;;5024561;28;20048;-62
2022/03/04 04:04:35;;;;;;;52.40;27.08;;;-1.50;99.90;;;;;;5025413;28;20553;-62
2022/03/04 04:07:09;;;;;;;53.58;29.15;;;-1.60;99.90;;;;;;5028574;28;20600;-62
2022/03/04 04:09:37;;;;;;;56.42;28.50;;;-1.60;99.90;;;;;;5049936;28;20036;-62
2022/03/04 04:12:04;;;;;;;54.88;29.58;;;-1.50;99.90;;;;;;5048656;28;20232;-62
2022/03/04 04:14:33;;;;;;;47.83;26.83;;;-1.60;99.90;;;;;;5046892;28;20055;-62
2022/03/04 04:17:00;;;;;;;45.78;26.38;;;-1.60;99.90;;;;;;5047948;28;20044;-63
2022/03/04 04:19:27;;;;;;;52.83;26.95;;;-1.60;99.90;;;;;;5056319;28;20046;-62
2022/03/04 04:21:54;;;;;;;56.40;28.77;;;-1.60;99.90;;;;;;5047567;28;20159;-63
2022/03/04 04:24:21;;;;;;;52.35;27.63;;;-1.70;99.90;;;;;;5047538;28;20059;-61
2022/03/04 04:26:48;;;;;;;53.97;28.00;;;-1.70;99.90;;;;;;5049912;28;20048;-62
2022/03/04 04:29:16;;;;;;;52.67;28.02;;;-1.70;99.90;;;;;;5044033;28;20059;-62
2022/03/04 04:31:43;;;;;;;52.50;28.10;;;-1.70;99.90;;;;;;5044609;28;20040;-62
2022/03/04 04:34:10;;;;;;;58.83;29.15;;;-1.70;99.90;;;;;;5027128;28;20056;-62
2022/03/04 04:36:38;;;;;;;54.78;28.92;;;-1.80;99.90;;;;;;5004060;28;20048;-62
2022/03/04 04:39:05;;;;;;;63.80;30.77;;;-1.70;99.90;;;;;;5003113;28;20133;-62
2022/03/04 04:41:32;;;;;;;59.08;29.55;;;-1.80;99.90;;;;;;5005121;28;20056;-62
2022/03/04 04:44:00;;;;;;;60.28;30.85;;;-1.80;99.90;;;;;;5045111;28;20032;-62
2022/03/04 04:46:27;;;;;;;54.05;29.80;;;-1.80;99.90;;;;;;5042881;28;20055;-62
2022/03/04 04:48:54;;;;;;;56.38;29.63;;;-1.80;99.90;;;;;;5046354;28;20028;-63
2022/03/04 04:51:21;;;;;;;59.03;30.23;;;-1.80;99.90;;;;;;5036435;28;20062;-62
2022/03/04 04:53:50;;;;;;;51.85;27.10;;;-1.80;99.90;;;;;;5003838;28;20047;-62
2022/03/04 04:56:17;;;;;;;49.42;25.85;;;-1.80;99.90;;;;;;5003885;28;20069;-62
2022/03/04 04:58:44;;;;;;;53.38;26.20;;;-1.90;99.90;;;;;;5003960;28;20044;-62
2022/03/04 05:01:11;;;;;;;51.60;28.33;;;-1.90;99.90;;;;;;5021781;28;20389;-62
2022/03/04 05:03:38;;;;;;;55.58;26.67;;;-1.90;99.90;;;;;;5039745;28;20044;-62
2022/03/04 05:06:05;;;;;;;47.70;25.88;;;-1.90;99.90;;;;;;5043332;28;20146;-62
2022/03/04 05:08:33;;;;;;;48.53;26.58;;;-1.90;99.90;;;;;;5042490;28;20040;-62
2022/03/04 05:11:01;;;;;;;54.33;28.40;;;-1.90;99.90;;;;;;5040523;28;20197;-62
2022/03/04 05:13:29;;;;;;;57.38;27.25;;;-1.90;99.90;;;;;;5045960;28;20133;-62
2022/03/04 05:15:56;;;;;;;53.95;26.27;;;-1.90;99.90;;;;;;5041155;28;20159;-62
2022/03/04 05:18:23;;;;;;;48.67;26.42;;;-1.90;99.90;;;;;;5041243;28;20127;-62
2022/03/04 05:20:50;;;;;;;55.20;27.50;;;-1.90;99.90;;;;;;5042718;28;20044;-62
2022/03/04 05:23:58;;;;;;;50.42;27.17;;;-1.90;99.90;;;;;;5043064;28;20338;-64
2022/03/04 05:26:03;;;;;;;51.15;26.63;;;-1.90;99.90;;;;;;5041720;28;20048;-61
2022/03/04 05:28:30;;;;;;;55.00;25.65;;;-1.90;99.90;;;;;;5043328;28;20044;-62
2022/03/04 05:30:58;;;;;;;53.90;28.58;;;-1.90;99.90;;;;;;5041575;28;20043;-62
2022/03/04 05:33:25;;;;;;;47.03;26.67;;;-2.00;99.90;;;;;;5033965;28;20040;-62
2022/03/04 05:35:52;;;;;;;54.22;27.60;;;-2.00;99.90;;;;;;5021844;28;20052;-62
2022/03/04 05:38:18;;;;;;;51.92;28.83;;;-2.10;99.90;;;;;;5022713;28;20099;-61
2022/03/04 05:40:45;;;;;;;47.88;26.58;;;-2.10;99.90;;;;;;5021927;28;20110;-62
2022/03/04 05:43:13;;;;;;;46.63;25.35;;;-2.20;99.90;;;;;;5025404;28;20944;-62
2022/03/04 05:45:40;;;;;;;44.90;25.00;;;-2.20;99.90;;;;;;5040819;28;20047;-61
2022/03/04 05:48:07;;;;;;;45.35;22.90;;;-2.20;99.90;;;;;;5043024;28;20028;-62
2022/03/04 05:50:34;;;;;;;47.40;23.33;;;-2.30;99.90;;;;;;5042014;28;20043;-63
2022/03/04 05:53:01;;;;;;;46.85;23.30;;;-2.30;99.90;;;;;;5011507;28;20491;-62
2022/03/04 05:55:29;;;;;;;45.20;25.00;;;-2.20;99.90;;;;;;5002353;28;20049;-62
2022/03/04 05:57:56;;;;;;;46.80;23.85;;;-2.30;99.90;;;;;;5001207;28;20041;-62
2022/03/04 06:00:22;;;;;;;47.40;23.80;;;-2.30;99.90;;;;;;5013520;28;20142;-62
2022/03/04 06:02:49;;;;;;;40.33;22.92;;;-2.30;99.90;;;;;;5040099;28;20047;-62
2022/03/04 06:05:17;;;;;;;49.22;26.52;;;-2.30;99.90;;;;;;5039996;28;20187;-62
2022/03/04 06:07:44;;;;;;;45.20;24.77;;;-2.30;99.90;;;;;;5042058;28;20032;-62
2022/03/04 06:10:11;;;;;;;47.38;25.80;;;-2.30;99.90;;;;;;5043424;28;20040;-62
2022/03/04 06:12:38;;;;;;;48.15;24.35;;;-2.30;99.90;;;;;;5041420;28;20036;-62
2022/03/04 06:15:05;;;;;;;45.05;23.52;;;-2.30;99.90;;;;;;5042391;28;20765;-63
2022/03/04 06:17:32;;;;;;;41.60;23.83;;;-2.30;99.90;;;;;;5049253;28;20560;-63
2022/03/04 06:20:04;;;;;;;46.22;25.63;;;-2.30;99.90;;;;;;5051823;28;20217;-57
2022/03/04 06:22:35;;;;;;;54.58;26.80;;;-2.30;99.90;;;;;;5047918;28;20051;-60
2022/03/04 06:25:02;;;;;;;49.50;26.30;;;-2.20;99.90;;;;;;5046262;28;20044;-56
2022/03/04 06:27:29;;;;;;;47.08;26.58;;;-2.20;99.90;;;;;;5032441;28;20335;-56
2022/03/04 06:29:56;;;;;;;51.45;26.60;;;-2.10;99.90;;;;;;5048085;28;20527;-56
2022/03/04 06:32:23;;;;;;;53.13;29.08;;;-2.00;99.90;;;;;;5050181;28;20044;-56
2022/03/04 06:34:53;;;;;;;49.15;25.60;;;-2.00;99.90;;;;;;5029233;28;20286;-54
2022/03/04 06:37:21;;;;;;;48.40;28.33;;;-1.90;99.90;;;;;;5009741;28;20047;-55
2022/03/04 06:39:48;;;;;;;53.13;27.20;;;-1.70;99.90;;;;;;5027696;28;20079;-56
2022/03/04 06:42:18;;;;;;;49.83;26.50;;;-1.50;99.90;;;;;;5026412;28;20855;-56
2022/03/04 06:44:46;;;;;;;50.92;27.45;;;-1.30;99.90;;;;;;5042378;28;20032;-56
2022/03/04 06:47:15;;;;;;;60.22;30.65;;;-1.10;99.90;;;;;;5045907;28;20032;-55
2022/03/04 06:49:42;;;;;;;56.20;27.95;;;-0.80;99.90;;;;;;5065860;28;20052;-55
2022/03/04 06:52:09;;;;;;;;;;;-0.60;99.90;;;;;;5041734;28;20143;-55
2022/03/04 06:54:39;;;;;;;57.33;29.55;;;-0.30;99.90;;;;;;5007688;28;19924;-55
2022/03/04 06:57:06;;;;;;;48.40;26.73;;;0.00;99.90;;;;;;5004113;28;20040;-56
2022/03/04 06:59:33;;;;;;;58.53;29.23;;;0.30;99.90;;;;;;5023339;28;20041;-55
2022/03/04 07:02:00;;;;;;;55.65;28.38;;;0.50;99.90;;;;;;5033825;28;20685;-55
2022/03/04 07:04:28;;;;;;;44.83;25.83;;;0.70;99.90;;;;;;5023341;28;20045;-55
2022/03/04 07:06:54;;;;;;;;;;;1.00;99.90;;;;;;5026153;28;20585;-58
2022/03/04 07:09:21;;;;;;;47.88;25.13;;;1.40;99.90;;;;;;5011761;28;19929;-53
2022/03/04 07:11:49;;;;;;;51.17;26.52;;;1.80;99.90;;;;;;5010270;28;20426;-54
2022/03/04 07:14:16;;;;;;;54.22;29.30;;;2.10;99.90;;;;;;4992761;28;20048;-60
2022/03/04 07:16:43;;;;;;;48.80;26.77;;;2.40;99.90;;;;;;5014102;28;20048;-55
2022/03/04 07:19:11;;;;;;;49.00;26.60;;;2.50;99.90;;;;;;5030897;28;20052;-55
2022/03/04 07:21:39;;;;;;;47.22;26.35;;;2.60;99.90;;;;;;5010939;28;20064;-55
2022/03/04 07:24:06;;;;;;;48.97;26.92;;;2.80;99.90;;;;;;5008420;28;20052;-56
2022/03/04 07:26:33;;;;;;;52.72;27.08;;;2.90;99.90;;;;;;5006845;28;20433;-56
2022/03/04 07:29:00;;;;;;;47.88;25.92;;;3.00;99.90;;;;;;5018275;28;20052;-55
2022/03/04 07:31:27;;;;;;;;;;;3.10;99.90;;;;;;5014663;28;20115;-58
2022/03/04 07:33:54;;;;;;;45.15;24.67;;;3.30;99.90;;;;;;5028483;28;19924;-58
2022/03/04 07:36:22;;;;;;;45.08;26.05;;;3.40;99.90;;;;;;5034773;28;20060;-54
2022/03/04 07:38:50;;;;;;;41.97;24.83;;;3.70;99.90;;;;;;5053015;28;20039;-69
2022/03/04 07:41:17;;;;;;;51.47;28.27;;;3.90;99.90;;;;;;5050891;28;20056;-56
2022/03/04 07:43:44;;;;;;;56.58;25.88;;;4.20;99.90;;;;;;5035423;28;20190;-56
2022/03/04 07:46:13;;;;;;;47.47;25.98;;;4.40;99.90;;;;;;5029782;28;20032;-56
2022/03/04 07:48:40;;;;;;;45.95;25.90;;;4.80;98.40;;;;;;5058496;28;20033;-57
2022/03/04 07:51:07;;;;;;;;;;;5.10;96.10;;;;;;5048230;28;20037;-56
2022/03/04 07:53:34;;;;;;;41.55;22.30;;;5.30;93.90;;;;;;5050452;28;19924;-59
2022/03/04 07:56:00;;;;;;;50.13;25.67;;;5.40;93.40;;;;;;5045765;28;20060;-58
2022/03/04 07:58:27;;;;;;;40.65;23.67;;;5.60;93.60;;;;;;5031780;28;20063;-59
2022/03/04 08:00:54;;;;;;;44.13;25.00;;;5.80;92.50;;;;;;5040847;28;20048;-57
2022/03/04 08:03:42;;;;;;;51.05;25.85;;;5.90;91.30;;;;;;5031634;28;20154;-56
2022/03/04 08:06:10;;;;;;;52.38;23.50;;;6.10;90.50;;;;;;5031333;28;20063;-56
2022/03/04 08:08:37;;;;;;;44.05;24.73;;;6.30;90.00;;;;;;5033888;28;20041;-55
2022/03/04 08:11:04;;;;;;;39.53;21.75;;;6.60;86.60;;;;;;5032718;28;20574;-56
2022/03/04 08:13:32;;;;;;;40.53;23.13;;;6.70;85.70;;;;;;5031887;28;20428;-57
2022/03/04 08:16:00;;;;;;;37.92;22.90;;;6.90;82.80;;;;;;5033400;28;20061;-56
2022/03/04 08:18:28;;;;;;;39.15;23.23;;;7.00;80.60;;;;;;5033008;28;20191;-56
2022/03/04 08:20:56;;;;;;;40.30;22.50;;;7.10;78.80;;;;;;5033824;28;20045;-56
2022/03/04 08:23:23;;;;;;;38.90;23.58;;;7.20;76.80;;;;;;5033026;28;20102;-55
2022/03/04 08:25:49;;;;;;;41.85;23.30;;;7.10;74.80;;;;;;5032865;28;20095;-57
2022/03/04 08:28:17;;;;;;;42.47;24.70;;;6.90;74.20;;;;;;5033498;28;20033;-58
2022/03/04 08:30:44;;;;;;;;;;;6.70;75.70;;;;;;5033705;28;20056;-55
2022/03/04 08:33:11;;;;;;;41.03;23.60;;;6.60;74.40;;;;;;5040264;28;19927;-56
2022/03/04 08:35:38;;;;;;;46.25;22.45;;;6.70;75.70;;;;;;5071688;28;20039;-56
2022/03/04 08:38:05;;;;;;;43.17;23.30;;;6.80;76.60;;;;;;5072858;28;20113;-64
2022/03/04 08:40:32;;;;;;;46.67;23.50;;;7.00;76.00;;;;;;5073039;28;20597;-58
2022/03/04 08:43:01;;;;;;;40.08;21.65;;;7.10;73.00;;;;;;5069455;28;20391;-51
2022/03/04 08:45:28;;;;;;;39.05;21.63;;;7.10;71.20;;;;;;5054605;28;20054;-49
2022/03/04 08:47:55;;;;;;;39.08;22.50;;;7.10;71.70;;;;;;5052518;28;20037;-48
2022/03/04 08:50:22;;;;;;;45.83;23.80;;;7.10;71.80;;;;;;5053174;28;20040;-58
2022/03/04 08:52:49;;;;;;;37.70;22.08;;;7.20;71.20;;;;;;5061608;28;20047;-56
2022/03/04 08:55:17;;;;;;;39.55;24.27;;;7.30;71.30;;;;;;5053185;28;20066;-65
2022/03/04 08:57:45;;;;;;;39.33;22.42;;;7.50;73.40;;;;;;5054489;28;20044;-57
2022/03/04 09:00:13;;;;;;;42.03;21.88;;;7.80;71.70;;;;;;5055695;28;20082;-58
2022/03/04 09:02:40;;;;;;;43.40;22.63;;;8.20;70.20;;;;;;5071165;28;20040;-57
2022/03/04 09:05:08;;;;;;;35.03;20.17;;;8.50;69.50;;;;;;5073360;28;20066;-58
2022/03/04 09:07:37;;;;;;;41.22;23.75;;;8.80;73.70;;;;;;5074345;28;20043;-58
2022/03/04 09:10:05;;;;;;;43.28;21.63;;;8.90;65.70;;;;;;5073216;28;20127;-56
2022/03/04 09:12:33;;;;;;;37.88;22.65;;;9.00;66.20;;;;;;5074251;28;20239;-57
2022/03/04 09:15:00;;;;;;;38.80;23.08;;;9.20;65.90;;;;;;5072969;28;20490;-58
2022/03/04 09:17:27;;;;;;;38.55;22.55;;;9.40;65.00;;;;;;5073256;28;20415;-57
2022/03/04 09:19:53;;;;;;;;;;;9.60;63.90;;;;;;5074380;28;20047;-58
2022/03/04 09:22:24;;;;;;;40.03;21.67;;;9.80;64.20;;;;;;5071609;28;19938;-61
2022/03/04 09:24:51;;;;;;;35.97;23.10;;;10.10;62.00;;;;;;5071833;28;20048;-56
2022/03/04 09:27:18;;;;;;;35.28;21.80;;;10.30;60.70;;;;;;5055296;28;20052;-67
2022/03/04 09:29:46;;;;;;;39.42;20.00;;;10.60;57.60;;;;;;5038314;28;20138;-66
2022/03/04 09:32:13;;;;;;;39.17;22.60;;;10.70;57.60;;;;;;5033582;28;20053;-57
2022/03/04 09:34:40;;;;;;;35.97;22.50;;;10.90;55.50;;;;;;5063859;28;20109;-58
2022/03/04 09:37:07;;;;;;;32.65;19.90;;;10.90;53.20;;;;;;5031643;28;20102;-56
2022/03/04 09:39:34;;;;;;;34.92;20.52;;;10.90;52.40;;;;;;5031764;28;20106;-58
2022/03/04 09:42:02;;;;;;;31.70;20.40;;;11.00;52.30;;;;;;5031028;28;20102;-58
2022/03/04 09:44:29;;;;;;;34.47;20.88;;;10.90;50.40;;;;;;5033420;28;20562;-58
2022/03/04 09:46:59;;;;;;;32.72;18.95;;;10.90;50.70;;;;;;5031747;28;20033;-58
2022/03/04 09:49:32;;;;;;;29.58;18.77;;;10.70;49.00;;;;;;5048458;28;20048;-58
2022/03/04 09:51:59;;;;;;;26.67;17.83;;;10.40;48.00;;;;;;5057077;28;20044;-57
2022/03/04 09:54:28;;;;;;;28.65;16.67;;;10.20;49.40;;;;;;5051993;28;20052;-58
2022/03/04 09:56:57;;;;;;;26.85;16.60;;;10.30;50.00;;;;;;5052059;28;20102;-58
2022/03/04 09:59:25;;;;;;;30.33;17.25;;;10.60;49.30;;;;;;5052631;28;20556;-57
2022/03/04 10:01:52;;;;;;;24.05;15.43;;;10.90;47.90;;;;;;5081992;28;20052;-58
2022/03/04 10:04:25;;;;;;;27.92;16.45;;;11.20;46.70;;;;;;5069965;28;20169;-67
2022/03/04 10:06:52;;;;;;;30.52;17.05;;;11.50;45.00;;;;;;5072112;28;20764;-57
2022/03/04 10:09:34;;;;;;;23.42;15.07;;;11.80;43.80;;;;;;5070632;28;20063;-56
2022/03/04 10:12:07;;;;;;;27.80;15.48;;;11.90;42.50;;;;;;5071577;28;20445;-56
2022/03/04 10:14:54;;;;;;;23.05;15.18;;;12.10;43.80;;;;;;5072556;28;20033;-56
2022/03/04 10:17:21;;;;;;;27.40;16.75;;;12.30;43.20;;;;;;5072579;28;20200;-56
2022/03/04 10:19:56;;;;;;;26.13;17.15;;;12.50;43.10;;;;;;5072633;28;20040;-56
2022/03/04 10:22:32;;;;;;;26.33;16.20;;;12.70;41.90;;;;;;5072626;28;20109;-56
2022/03/04 10:24:59;;;;;;;27.95;17.88;;;12.70;41.10;;;;;;5070032;28;20052;-57
2022/03/04 10:27:33;;;;;;;24.48;16.38;;;12.80;43.10;;;;;;5072841;28;20052;-53
2022/03/04 10:30:02;;;;;;;26.73;17.05;;;12.90;42.80;;;;;;5072647;28;20121;-56
2022/03/04 10:32:29;;;;;;;25.58;16.98;;;13.00;42.50;;;;;;5072647;28;20044;-57
2022/03/04 10:35:06;;;;;;;27.42;17.58;;;13.00;40.60;;;;;;5047492;28;20049;-57
2022/03/04 10:37:56;;;;;;;24.65;17.27;;;13.10;41.60;;;;;;5014929;28;20036;-57
2022/03/04 10:40:29;;;;;;;25.90;17.15;;;13.20;40.40;;;;;;5029657;28;20459;-57
2022/03/04 10:43:01;;;;;;;27.15;16.55;;;13.30;39.40;;;;;;5039064;28;20074;-56
2022/03/04 10:45:29;;;;;;;29.85;17.88;;;13.50;40.40;;;;;;5072560;28;20040;-57
2022/03/04 10:47:57;;;;;;;27.48;18.30;;;13.60;40.80;;;;;;5070902;28;20040;-57
2022/03/04 10:50:33;;;;;;;25.48;17.23;;;13.70;38.90;;;;;;5072291;28;20036;-59
2022/03/04 10:53:09;;;;;;;26.48;18.10;;;13.60;39.80;;;;;;5043618;28;20637;-57
2022/03/04 10:55:35;;;;;;;30.88;18.10;;;13.60;39.80;;;;;;5051086;28;20098;-57
2022/03/04 10:58:05;;;;;;;27.13;18.13;;;13.60;40.20;;;;;;5051228;28;20056;-57
2022/03/04 11:00:37;;;;;;;25.65;17.90;;;13.50;38.80;;;;;;5034856;28;20422;-57
2022/03/04 11:03:07;;;;;;;32.58;19.08;;;13.40;39.60;;;;;;5034917;28;20045;-58
2022/03/04 11:05:36;;;;;;;29.48;16.88;;;13.50;38.40;;;;;;5035568;28;20041;-58
2022/03/04 11:08:03;;;;;;;28.55;19.02;;;13.50;38.00;;;;;;5053674;28;20044;-58
2022/03/04 11:10:30;;;;;;;26.77;16.73;;;13.70;39.80;;;;;;5071489;28;20090;-58
2022/03/04 11:12:58;;;;;;;27.92;18.38;;;13.70;38.70;;;;;;5053784;28;20044;-58
2022/03/04 11:15:25;;;;;;;25.15;16.58;;;13.80;37.50;;;;;;5055531;28;20681;-58
2022/03/04 11:17:53;;;;;;;30.48;20.02;;;13.80;38.40;;;;;;5055527;28;20068;-58
2022/03/04 11:20:21;;;;;;;28.25;18.48;;;13.90;38.60;;;;;;5056498;28;20047;-58
2022/03/04 11:22:51;;;;;;;33.88;19.27;;;14.00;37.10;;;;;;5056890;28;20145;-56
2022/03/04 11:25:18;;;;;;;27.35;18.63;;;13.90;38.40;;;;;;5054477;28;20124;-56
2022/03/04 11:27:47;;;;;;;28.48;19.92;;;14.00;37.80;;;;;;5055862;28;20670;-57
2022/03/04 11:30:37;;;;;;;29.85;19.73;;;14.00;38.50;;;;;;5056148;28;20036;-54
2022/03/04 11:33:21;;;;;;;32.78;19.48;;;13.90;38.30;;;;;;5058544;28;20047;-57
2022/03/04 11:36:05;;;;;;;32.47;21.20;;;13.90;38.50;;;;;;5060505;28;20547;-56
2022/03/04 11:38:47;;;;;;;32.45;20.77;;;13.80;39.50;;;;;;5055211;28;20564;-55
2022/03/04 11:41:19;;;;;;;32.47;20.88;;;13.70;39.00;;;;;;5052067;28;20048;-57
2022/03/04 11:43:56;;;;;;;27.30;18.75;;;13.50;38.30;;;;;;5039498;28;20620;-57
2022/03/04 11:46:25;;;;;;;34.65;20.20;;;13.30;39.80;;;;;;5032077;28;20389;-57
2022/03/04 11:49:24;;;;;;;35.08;22.98;;;13.30;40.40;;;;;;5033997;28;20105;-57
2022/03/04 11:52:09;;;;;;;33.20;21.92;;;13.20;39.20;;;;;;5035635;28;20694;-56
2022/03/04 11:54:42;;;;;;;32.78;20.98;;;13.00;40.50;;;;;;5029136;28;20044;-57
2022/03/04 11:57:26;;;;;;;31.30;22.10;;;12.80;40.70;;;;;;5028901;28;20542;-67
2022/03/04 11:59:58;;;;;;;37.53;22.20;;;12.60;40.90;;;;;;5037848;28;20280;-56
2022/03/04 12:02:38;;;;;;;37.03;23.02;;;12.40;41.50;;;;;;5034891;28;20070;-54
2022/03/04 12:05:14;;;;;;;32.85;21.40;;;12.30;41.90;;;;;;5033114;28;20037;-57
2022/03/04 12:08:05;;;;;;;34.53;22.75;;;12.20;41.30;;;;;;5034073;28;20036;-57
2022/03/04 12:10:43;;;;;;;31.90;21.00;;;12.10;42.30;;;;;;5030729;28;20041;-56
2022/03/04 12:13:20;;;;;;;35.20;21.85;;;12.00;41.60;;;;;;5031505;28;20041;-57
2022/03/04 12:15:58;;;;;;;;;;;12.00;43.10;;;;;;5032923;28;20051;-57
2022/03/04 12:18:28;;;;;;;35.25;23.05;;;11.90;42.40;;;;;;5013479;28;19931;-57
2022/03/04 12:20:55;;;;;;;36.95;21.83;;;11.90;42.50;;;;;;5010179;28;20053;-56
2022/03/04 12:23:33;;;;;;;36.05;21.73;;;12.10;42.80;;;;;;5010122;28;20055;-56
2022/03/04 12:26:00;;;;;;;35.20;22.45;;;12.20;42.90;;;;;;5010149;28;20465;-56
2022/03/04 12:28:34;;;;;;;39.05;21.85;;;12.10;42.50;;;;;;5016620;28;20045;-56
2022/03/04 12:31:01;;;;;;;35.50;21.23;;;12.00;42.00;;;;;;5011292;28;20328;-56
2022/03/04 12:33:30;;;;;;;35.33;20.95;;;12.10;40.70;;;;;;5023070;28;20032;-56
2022/03/04 12:35:58;;;;;;;31.08;20.75;;;12.00;42.20;;;;;;5050887;28;20044;-57
2022/03/04 12:38:31;;;;;;;37.45;20.40;;;12.10;42.50;;;;;;5031073;28;20605;-55
2022/03/04 12:40:59;;;;;;;32.15;19.98;;;12.30;40.90;;;;;;5007796;28;20615;-55